Time;durP1;ratioP1;P1;durP2;ratioP2;P2;SDS_P1;SDS_P2;PMS_P1;PMS_P2;Temp;Humidity;BMP_temperature;BMP_pressure;BME280_temperature;BME280_humidity;BME280_pressure;Samples;Min_cycle;Max_cycle;Signal;HPM_P1;HPM_P2
2021/11/25 00:00:17;;;;;;;20.63;12.20;;;2.80;81.20;;;3.14;63.77;97190.69;5026480;28;20251;-49
2021/11/25 00:02:45;;;;;;;22.60;12.10;;;2.90;81.30;;;3.11;63.41;97180.41;5027402;28;20049;-46
2021/11/25 00:05:13;;;;;;;20.83;12.47;;;2.80;81.20;;;3.13;63.45;97181.13;5025807;28;20124;-46
2021/11/25 00:07:41;;;;;;;19.30;11.60;;;2.80;81.40;;;3.13;63.23;97182.91;5027174;28;20374;-46
2021/11/25 00:10:10;;;;;;;20.07;12.30;;;2.90;81.60;;;3.13;63.65;97177.66;5027095;28;20067;-46
2021/11/25 00:12:38;;;;;;;20.60;12.47;;;2.90;81.30;;;3.14;63.31;97180.16;5027378;28;20056;-47
2021/11/25 00:15:09;;;;;;;18.50;11.27;;;2.80;81.20;;;3.16;63.88;97169.53;5024315;28;20053;-45
2021/11/25 00:17:38;;;;;;;22.67;11.90;;;2.90;81.50;;;3.17;63.44;97165.91;5027208;28;20061;-45
2021/11/25 00:20:09;;;;;;;19.20;10.60;;;2.90;81.50;;;3.16;63.50;97159.00;5027762;28;20361;-47
2021/11/25 00:22:38;;;;;;;20.10;11.43;;;2.80;81.40;;;3.16;63.79;97164.28;5026907;28;20063;-47
2021/11/25 00:25:07;;;;;;;18.13;11.10;;;2.80;81.70;;;3.14;63.71;97167.03;5028155;28;20049;-49
2021/11/25 00:27:36;;;;;;;19.67;11.13;;;2.80;81.80;;;3.11;63.74;97155.91;5026773;28;20061;-51
2021/11/25 00:30:06;;;;;;;20.43;10.87;;;2.80;81.90;;;3.12;63.80;97154.94;5026746;28;20057;-46
2021/11/25 00:32:35;;;;;;;20.13;11.83;;;2.80;82.10;;;3.12;63.83;97147.91;5026244;28;20054;-45
2021/11/25 00:35:04;;;;;;;17.53;9.57;;;2.80;82.00;;;3.12;63.89;97142.63;5024936;28;20045;-45
2021/11/25 00:37:32;;;;;;;20.80;12.07;;;2.80;82.00;;;3.12;63.77;97142.63;5025897;28;20044;-48
2021/11/25 00:40:00;;;;;;;19.67;12.20;;;2.80;82.10;;;3.13;63.71;97141.66;5028147;28;20057;-46
2021/11/25 00:42:28;;;;;;;18.67;10.73;;;2.80;82.20;;;3.13;63.84;97146.91;5046569;28;20049;-48
2021/11/25 00:44:56;;;;;;;17.47;10.47;;;2.80;82.20;;;3.14;64.16;97139.84;5045467;28;20053;-46
2021/11/25 00:47:23;;;;;;;16.90;10.63;;;2.80;82.20;;;3.13;63.92;97135.56;5045810;28;20227;-44
2021/11/25 00:49:51;;;;;;;21.00;10.50;;;2.80;82.30;;;3.12;63.72;97126.84;5038303;28;20052;-46
2021/11/25 00:52:19;;;;;;;18.47;11.23;;;2.80;82.20;;;3.11;64.01;97138.31;5045876;28;20055;-47
2021/11/25 00:54:47;;;;;;;19.97;10.70;;;2.80;81.90;;;3.11;64.23;97126.97;5044680;28;20037;-45
2021/11/25 00:57:15;;;;;;;21.13;11.10;;;2.80;81.90;;;3.12;63.81;97131.25;5046335;28;20071;-48
2021/11/25 00:59:43;;;;;;;16.80;9.57;;;2.80;82.20;;;3.15;63.95;97123.13;5047179;28;20057;-45
2021/11/25 01:02:11;;;;;;;18.13;10.67;;;2.80;82.10;;;3.16;63.96;97122.19;5045724;28;20063;-45
2021/11/25 01:04:40;;;;;;;22.00;10.70;;;2.90;81.80;;;3.15;63.86;97126.59;5043497;28;20267;-46
2021/11/25 01:07:10;;;;;;;20.50;11.90;;;2.80;81.70;;;3.17;63.98;97120.38;5044616;28;20060;-46
2021/11/25 01:09:39;;;;;;;22.83;10.83;;;2.80;81.70;;;3.16;64.05;97122.19;5044990;28;20044;-45
2021/11/25 01:12:09;;;;;;;23.83;11.97;;;2.80;81.90;;;3.18;63.85;97130.78;5040650;28;20059;-45
2021/11/25 01:14:38;;;;;;;22.97;12.30;;;2.90;81.80;;;3.18;63.64;97124.66;5045356;28;20052;-45
2021/11/25 01:17:07;;;;;;;23.93;12.47;;;2.90;81.80;;;3.18;63.74;97120.25;5044950;28;20389;-47
2021/11/25 01:19:36;;;;;;;20.27;11.83;;;2.70;81.60;;;3.17;63.68;97115.94;5047760;28;20254;-46
2021/11/25 01:22:05;;;;;;;21.60;11.27;;;2.80;81.70;;;3.17;63.93;97115.94;5044528;28;20135;-46
2021/11/25 01:24:39;;;;;;;18.92;11.02;;;2.80;81.80;;;3.17;63.81;97105.41;5044487;28;20653;-46
2021/11/25 01:27:07;;;;;;;22.30;11.10;;;2.80;81.60;;;3.17;63.67;97105.41;5046822;28;20060;-49
2021/11/25 01:29:35;;;;;;;18.67;11.53;;;2.80;81.90;;;3.16;63.90;97106.41;5044860;28;20061;-46
2021/11/25 01:32:04;;;;;;;20.57;11.47;;;2.80;81.70;;;3.15;63.80;97108.16;5044936;28;20065;-46
2021/11/25 01:34:32;;;;;;;19.70;10.53;;;2.80;82.00;;;3.15;63.86;97108.16;5044727;28;20114;-46
2021/11/25 01:37:00;;;;;;;19.57;9.97;;;2.80;82.00;;;3.17;64.13;97112.47;5045447;28;20209;-49
2021/11/25 01:39:28;;;;;;;17.60;10.50;;;2.80;81.80;;;3.14;63.88;97096.00;5045847;28;20375;-46
2021/11/25 01:41:56;;;;;;;19.13;10.27;;;2.80;82.00;;;3.13;64.23;97098.75;5046028;28;20044;-48
2021/11/25 01:44:24;;;;;;;17.87;10.03;;;2.80;82.20;;;3.18;63.74;97106.25;5043864;28;20056;-47
2021/11/25 01:46:52;;;;;;;20.77;10.47;;;2.80;82.20;;;3.15;63.88;97102.91;5045095;28;20067;-45
2021/11/25 01:49:20;;;;;;;20.93;11.07;;;2.80;82.20;;;3.14;63.63;97095.13;5045823;28;20261;-46
2021/11/25 01:51:48;;;;;;;22.03;10.43;;;2.80;82.10;;;3.15;63.86;97099.44;5046390;28;20559;-45
2021/11/25 01:54:16;;;;;;;20.00;10.20;;;2.80;82.10;;;3.17;64.31;97100.16;5045101;28;20052;-46
2021/11/25 01:56:45;;;;;;;21.73;11.03;;;2.90;82.20;;;3.14;64.03;97097.78;5045010;28;20228;-46
2021/11/25 01:59:13;;;;;;;22.63;11.83;;;2.80;82.10;;;3.12;64.23;97086.53;5040697;28;20489;-47
2021/11/25 02:01:41;;;;;;;18.83;10.53;;;2.80;82.20;;;3.11;64.08;97093.63;5043589;28;20044;-46
2021/11/25 02:04:09;;;;;;;18.87;10.87;;;2.80;82.20;;;3.09;63.75;97085.00;5044521;28;20220;-49
2021/11/25 02:06:40;;;;;;;22.63;11.87;;;2.70;82.30;;;3.12;63.96;97082.13;5044679;28;20061;-48
2021/11/25 02:09:10;;;;;;;18.33;11.00;;;2.70;82.50;;;3.14;63.99;97082.84;5046291;28;20312;-45
2021/11/25 02:11:40;;;;;;;18.30;11.73;;;2.80;82.30;;;3.12;64.21;97073.41;5045208;28;20055;-46
2021/11/25 02:14:08;;;;;;;19.90;10.47;;;2.80;82.20;;;3.10;63.65;97068.28;5044017;28;20235;-47
2021/11/25 02:16:37;;;;;;;20.33;10.87;;;2.80;82.40;;;3.12;64.08;97061.09;5043529;28;20051;-49
2021/11/25 02:19:06;;;;;;;18.73;11.13;;;2.80;82.50;;;3.14;64.26;97063.56;5045853;28;20364;-46
2021/11/25 02:21:35;;;;;;;20.50;11.60;;;2.80;82.20;;;3.19;64.03;97065.84;5043959;28;20208;-47
2021/11/25 02:24:04;;;;;;;18.50;10.73;;;2.80;82.10;;;3.18;64.45;97069.41;5044728;28;20055;-47
2021/11/25 02:26:32;;;;;;;17.83;10.23;;;2.90;81.90;;;3.18;63.89;97064.16;5045966;28;20049;-48
2021/11/25 02:29:00;;;;;;;21.87;12.50;;;2.80;82.10;;;3.18;64.15;97078.16;5045430;28;20053;-46
2021/11/25 02:31:28;;;;;;;18.70;10.90;;;2.80;82.40;;;3.20;64.22;97064.84;5044959;28;20056;-45
2021/11/25 02:33:56;;;;;;;22.77;11.13;;;2.90;82.20;;;3.18;64.13;97056.25;5043765;28;20048;-44
2021/11/25 02:36:24;;;;;;;22.43;13.00;;;2.80;82.10;;;3.19;64.22;97056.13;5043905;28;20060;-48
2021/11/25 02:38:53;;;;;;;18.47;10.53;;;2.90;82.50;;;3.21;64.40;97062.09;5045241;28;20041;-45
2021/11/25 02:41:21;;;;;;;19.57;11.20;;;2.90;82.30;;;3.20;64.35;97051.72;5045770;28;20040;-48
2021/11/25 02:43:52;;;;;;;22.07;12.23;;;2.90;82.30;;;3.19;63.77;97048.25;5044211;28;20339;-46
2021/11/25 02:46:20;;;;;;;21.10;12.07;;;2.90;82.30;;;3.20;64.34;97042.03;5044588;28;20075;-46
2021/11/25 02:48:53;;;;;;;20.83;11.03;;;2.90;82.30;;;3.20;64.16;97044.66;5043048;28;20247;-45
2021/11/25 02:51:27;;;;;;;20.83;10.90;;;2.90;82.30;;;3.20;63.95;97041.19;5046005;28;20053;-46
2021/11/25 02:53:55;;;;;;;18.73;10.53;;;2.90;82.60;;;3.20;64.10;97033.28;5044598;28;20059;-48
2021/11/25 02:56:27;;;;;;;24.83;14.93;;;2.90;82.70;;;3.19;64.23;97036.91;5045140;28;20045;-48
2021/11/25 02:58:57;;;;;;;24.00;14.30;;;2.80;82.70;;;3.20;63.91;97028.88;5043973;28;20057;-48
2021/11/25 03:01:36;;;;;;;26.47;16.63;;;2.90;82.70;;;3.23;64.41;97033.03;5045755;28;20052;-46
2021/11/25 03:04:06;;;;;;;29.33;17.90;;;2.90;82.60;;;3.24;64.14;97027.66;5044616;28;20045;-46
2021/11/25 03:06:35;;;;;;;32.17;17.47;;;2.90;82.60;;;3.25;64.15;97033.75;5048103;28;20059;-46
2021/11/25 03:09:07;;;;;;;28.57;18.03;;;2.90;82.60;;;3.25;64.20;97028.47;5049337;28;20053;-47
2021/11/25 03:11:36;;;;;;;27.37;17.27;;;2.90;82.60;;;3.24;64.22;97026.81;5048135;28;20067;-49
2021/11/25 03:14:08;;;;;;;24.27;13.93;;;3.00;82.60;;;3.26;64.51;97019.66;5047590;28;20071;-46
2021/11/25 03:16:36;;;;;;;33.43;17.73;;;3.00;82.60;;;3.24;64.29;97011.03;5047701;28;20325;-45
2021/11/25 03:19:04;;;;;;;32.87;19.07;;;2.90;82.60;;;3.22;64.30;97010.31;5048402;28;20037;-46
2021/11/25 03:21:32;;;;;;;26.80;16.27;;;2.90;82.60;;;3.21;64.53;97008.66;5048553;28;20052;-48
2021/11/25 03:24:01;;;;;;;28.07;15.63;;;2.90;83.00;;;3.21;64.40;97006.88;5045953;28;20065;-46
2021/11/25 03:26:29;;;;;;;26.83;17.50;;;2.90;83.30;;;3.22;64.33;97010.31;5047576;28;20061;-47
2021/11/25 03:29:02;;;;;;;28.20;15.17;;;2.90;83.30;;;3.23;64.22;97006.75;5048114;28;20065;-47
2021/11/25 03:31:32;;;;;;;24.67;14.20;;;2.90;83.30;;;3.20;64.46;97014.88;5047785;28;20059;-47
2021/11/25 03:34:02;;;;;;;25.30;14.73;;;2.90;83.50;;;3.18;64.13;97022.06;5046009;28;20060;-46
2021/11/25 03:36:31;;;;;;;23.70;13.67;;;2.80;83.50;;;3.16;64.52;97016.97;5047516;28;20208;-49
2021/11/25 03:38:59;;;;;;;26.30;14.40;;;2.80;83.80;;;3.15;64.64;97012.66;5047898;28;20607;-48
2021/11/25 03:41:29;;;;;;;21.10;14.03;;;2.80;83.90;;;3.17;64.87;97012.53;5046773;28;20049;-48
2021/11/25 03:43:58;;;;;;;23.17;12.37;;;2.80;84.10;;;3.20;64.65;97010.47;5046518;28;20057;-47
2021/11/25 03:46:26;;;;;;;22.37;12.83;;;2.90;84.00;;;3.19;64.79;97014.06;5046239;28;20398;-47
2021/11/25 03:48:54;;;;;;;20.47;12.33;;;2.90;83.90;;;3.18;64.87;97007.13;5046570;28;20053;-47
2021/11/25 03:51:22;;;;;;;19.50;11.67;;;2.90;83.80;;;3.17;64.31;97008.09;5045536;28;20056;-45
2021/11/25 03:53:51;;;;;;;23.27;12.67;;;2.80;83.80;;;3.17;64.92;97009.91;5048258;28;20061;-48
2021/11/25 03:56:18;;;;;;;26.27;13.90;;;2.80;84.00;;;3.19;65.01;97007.97;5046915;28;20051;-45
2021/11/25 03:58:47;;;;;;;23.20;12.97;;;2.90;84.00;;;3.22;64.56;96999.78;5047223;28;20045;-46
2021/11/25 04:01:16;;;;;;;22.87;11.40;;;2.90;83.70;;;3.23;64.95;97001.47;5047203;28;20057;-47
2021/11/25 04:03:44;;;;;;;23.20;13.07;;;3.00;83.30;;;3.24;64.85;96998.72;5045441;28;20060;-45
2021/11/25 04:06:12;;;;;;;20.93;12.20;;;3.00;82.90;;;3.26;64.58;96998.59;5046365;28;20053;-48
2021/11/25 04:08:40;;;;;;;21.57;12.03;;;3.00;82.70;;;3.25;64.92;97003.00;5046290;28;20053;-46
2021/11/25 04:11:08;;;;;;;24.77;11.57;;;3.00;82.80;;;3.26;64.70;97003.84;5048516;28;20353;-45
2021/11/25 04:13:36;;;;;;;21.27;11.70;;;2.90;82.80;;;3.25;64.06;97004.81;5046833;28;20061;-46
2021/11/25 04:16:04;;;;;;;19.40;11.63;;;2.90;82.90;;;3.24;64.31;97000.50;5041368;28;20239;-45
2021/11/25 04:18:32;;;;;;;23.80;13.10;;;2.90;83.00;;;3.25;64.53;96999.53;5046241;28;20266;-48
2021/11/25 04:21:00;;;;;;;19.83;11.07;;;2.90;83.00;;;3.27;64.37;96997.63;5049202;28;20052;-47
2021/11/25 04:23:28;;;;;;;23.87;12.43;;;2.90;82.70;;;3.28;64.24;96996.66;5047240;28;20063;-47
2021/11/25 04:25:56;;;;;;;23.07;13.07;;;2.90;82.90;;;3.28;64.33;96984.34;5045826;28;20065;-50
2021/11/25 04:28:24;;;;;;;18.33;10.43;;;2.90;83.00;;;3.28;64.23;96988.78;5061529;28;20087;-46
2021/11/25 04:35:28;;;;;;;24.10;13.17;;;2.90;82.80;;;3.27;64.24;96981.81;5044131;28;20273;-47
2021/11/25 04:36:27;;;;;;;22.93;12.07;;;2.90;83.40;;;3.26;64.81;96975.75;5044875;28;20197;-45
2021/11/25 04:38:55;;;;;;;23.80;12.90;;;2.90;83.30;;;3.26;64.42;96988.91;5047894;28;20045;-46
2021/11/25 04:41:23;;;;;;;19.13;12.47;;;2.90;83.40;;;3.28;64.48;96989.59;5047289;28;20047;-46
2021/11/25 04:43:51;;;;;;;19.20;11.87;;;2.90;83.50;;;3.30;64.48;96985.03;5044867;28;20052;-45
2021/11/25 04:46:19;;;;;;;22.47;12.17;;;3.00;83.40;;;3.33;64.77;96987.41;5045913;28;20165;-45
2021/11/25 04:48:47;;;;;;;24.87;12.70;;;3.00;83.20;;;3.31;64.38;96978.78;5047767;28;20052;-47
2021/11/25 04:51:15;;;;;;;24.53;12.27;;;3.00;83.00;;;3.28;64.25;96976.44;5046435;28;20051;-48
2021/11/25 04:53:43;;;;;;;23.20;12.37;;;2.90;83.30;;;3.28;64.76;96973.00;5046229;28;20051;-47
2021/11/25 04:56:11;;;;;;;24.37;12.90;;;2.90;83.70;;;3.28;64.33;96973.81;5042134;28;20279;-47
2021/11/25 04:58:39;;;;;;;23.10;13.53;;;2.90;83.80;;;3.31;64.62;96970.91;5047393;28;20044;-45
2021/11/25 05:01:07;;;;;;;24.83;13.03;;;3.00;83.70;;;3.33;64.68;96971.63;5046406;28;20223;-46
2021/11/25 05:03:35;;;;;;;19.07;10.80;;;3.00;83.40;;;3.31;64.89;96957.75;5046224;28;20385;-45
2021/11/25 05:06:07;;;;;;;29.27;13.83;;;3.00;83.50;;;3.31;64.43;96951.66;5046088;28;20056;-46
2021/11/25 05:08:35;;;;;;;27.33;12.90;;;2.90;83.50;;;3.31;64.74;96960.38;5045252;28;20051;-46
2021/11/25 05:11:04;;;;;;;22.87;12.67;;;2.90;83.60;;;3.29;64.18;96962.31;5046033;28;20068;-48
2021/11/25 05:13:32;;;;;;;22.83;12.20;;;2.90;83.50;;;3.29;64.88;96964.13;5044564;28;20049;-46
2021/11/25 05:16:01;;;;;;;23.43;12.93;;;2.90;83.90;;;3.29;64.88;96967.56;5045725;28;20064;-45
2021/11/25 05:18:29;;;;;;;25.10;13.10;;;2.90;83.90;;;3.28;64.49;96968.56;5045347;28;20041;-48
2021/11/25 05:20:57;;;;;;;26.40;13.80;;;2.90;84.00;;;3.31;64.68;96967.44;5046624;28;20061;-46
2021/11/25 05:23:25;;;;;;;25.80;14.80;;;2.90;84.10;;;3.35;64.53;96968.84;5045999;28;20247;-46
2021/11/25 05:25:53;;;;;;;22.83;14.13;;;3.00;84.10;;;3.37;64.47;96971.34;5046173;28;20247;-46
2021/11/25 05:28:21;;;;;;;26.40;14.80;;;3.00;83.80;;;3.39;64.45;96964.97;5044247;28;20325;-45
2021/11/25 05:30:49;;;;;;;27.17;15.13;;;3.10;83.90;;;3.39;64.37;96966.78;5046367;28;20293;-48
2021/11/25 05:33:17;;;;;;;29.57;16.27;;;3.00;83.60;;;3.40;65.13;96976.34;5044295;28;20057;-46
2021/11/25 05:35:45;;;;;;;24.67;12.70;;;3.00;83.80;;;3.41;64.40;96972.75;5044252;28;20052;-47
2021/11/25 05:38:14;;;;;;;23.73;13.70;;;3.10;84.00;;;3.41;64.50;96967.47;5045235;28;20076;-46
2021/11/25 05:40:44;;;;;;;23.33;13.60;;;3.10;83.80;;;3.37;64.89;96974.81;5045851;28;20255;-45
2021/11/25 05:43:12;;;;;;;27.50;13.47;;;3.00;83.60;;;3.35;64.44;96974.09;5044738;28;20139;-47
2021/11/25 05:45:40;;;;;;;31.73;15.27;;;3.00;84.00;;;3.33;64.67;96969.00;5044859;28;20067;-46
2021/11/25 05:48:08;;;;;;;31.90;15.87;;;3.00;84.20;;;3.29;65.03;96974.63;5044208;28;20061;-46
2021/11/25 05:50:36;;;;;;;27.23;15.20;;;2.90;84.40;;;3.28;65.04;96968.56;5044999;28;20060;-46
2021/11/25 05:53:04;;;;;;;33.33;17.80;;;2.90;84.70;;;3.27;64.92;96972.13;5044401;28;20060;-46
2021/11/25 05:55:32;;;;;;;30.60;16.97;;;2.90;85.00;;;3.29;64.56;96975.47;5045159;28;20060;-45
2021/11/25 05:58:00;;;;;;;36.33;19.90;;;2.90;84.80;;;3.34;65.04;96975.09;5044853;28;20259;-48
2021/11/25 06:00:28;;;;;;;28.57;15.37;;;2.90;84.80;;;3.36;64.79;96975.78;5045974;28;20055;-47
2021/11/25 06:02:56;;;;;;;40.97;21.07;;;3.00;84.60;;;3.38;64.61;96973.84;5045761;28;20119;-45
2021/11/25 06:05:24;;;;;;;33.90;17.10;;;3.00;84.40;;;3.41;65.05;96970.94;5043541;28;20059;-46
2021/11/25 06:07:52;;;;;;;29.57;15.30;;;3.10;84.50;;;3.42;64.81;96977.88;5044012;28;20053;-49
2021/11/25 06:10:23;;;;;;;30.50;18.00;;;3.10;84.30;;;3.43;64.81;96966.41;5045433;28;20270;-46
2021/11/25 06:12:52;;;;;;;27.70;15.93;;;3.10;84.30;;;3.44;64.99;96972.50;5045303;28;20052;-46
2021/11/25 06:15:21;;;;;;;29.20;15.57;;;3.10;84.30;;;3.45;64.47;96968.88;5045876;28;20364;-46
2021/11/25 06:17:51;;;;;;;32.87;17.37;;;3.10;84.10;;;3.41;64.90;96970.94;5042923;28;20061;-45
2021/11/25 06:20:21;;;;;;;34.63;18.80;;;3.00;83.80;;;3.38;65.06;96968.59;5046333;28;20045;-45
2021/11/25 06:22:53;;;;;;;89.90;49.43;;;3.00;84.20;;;3.36;64.92;96962.63;5044333;28;20059;-46
2021/11/25 06:25:24;;;;;;;110.10;69.47;;;2.90;84.10;;;3.31;64.98;96955.13;5044470;28;20239;-47
2021/11/25 06:27:53;;;;;;;48.57;27.83;;;2.90;84.60;;;3.29;64.47;96964.13;5044978;28;20061;-48
2021/11/25 06:30:21;;;;;;;43.50;23.20;;;2.80;84.50;;;3.27;64.70;96969.50;5045915;28;20067;-46
2021/11/25 06:32:51;;;;;;;32.37;18.60;;;2.80;84.70;;;3.26;64.84;96972.28;5044649;28;20049;-47
2021/11/25 06:35:21;;;;;;;25.47;14.80;;;2.80;84.80;;;3.27;64.61;96973.94;5043813;28;20061;-45
2021/11/25 06:37:53;;;;;;;24.67;14.17;;;2.80;84.60;;;3.26;64.99;96967.03;5044287;28;20270;-46
2021/11/25 06:40:33;;;;;;;29.13;16.13;;;2.80;84.70;;;3.24;64.79;96976.81;5047307;28;20057;-46
2021/11/25 06:43:07;;;;;;;32.37;17.70;;;2.80;84.80;;;3.23;65.31;96980.44;5048186;28;20071;-46
2021/11/25 06:45:37;;;;;;;;;;;2.80;85.30;;;3.20;64.97;96980.69;5050197;28;20055;-47
2021/11/25 06:48:06;;;;;;;26.77;13.17;;;2.80;85.20;;;3.20;64.66;96983.31;5041434;28;19917;-46
2021/11/25 06:50:35;;;;;;;28.87;17.07;;;2.80;85.60;;;3.22;64.76;96987.50;5029158;28;20060;-46
2021/11/25 06:53:03;;;;;;;29.23;15.30;;;2.80;85.30;;;3.23;64.85;96990.94;5028627;28;20263;-45
2021/11/25 06:55:32;;;;;;;25.97;14.90;;;2.90;85.10;;;3.22;65.12;96986.66;5028082;28;20053;-44
2021/11/25 06:58:00;;;;;;;29.97;16.10;;;2.90;85.30;;;3.22;65.36;96987.50;5026983;28;20059;-46
2021/11/25 07:00:28;;;;;;;27.97;16.30;;;2.90;85.10;;;3.22;65.20;96987.50;5028536;28;20053;-47
2021/11/25 07:02:59;;;;;;;30.03;15.67;;;2.80;85.00;;;3.22;64.79;96987.50;5027042;28;20061;-49
2021/11/25 07:05:28;;;;;;;29.03;14.93;;;2.90;85.30;;;3.23;65.07;96985.69;5028003;28;20060;-47
2021/11/25 07:07:56;;;;;;;29.70;15.80;;;2.90;85.30;;;3.20;65.16;96986.78;5027818;28;20061;-49
2021/11/25 07:10:25;;;;;;;25.97;14.60;;;2.80;85.20;;;3.19;65.26;96995.63;5026934;28;20060;-50
2021/11/25 07:12:53;;;;;;;31.50;15.03;;;2.80;85.70;;;3.22;65.53;96991.91;5028888;28;20367;-46
2021/11/25 07:15:23;;;;;;;25.50;15.43;;;2.80;85.90;;;3.23;65.01;96989.16;5028584;28;20060;-48
2021/11/25 07:17:52;;;;;;;27.37;14.97;;;2.90;85.90;;;3.22;65.26;96992.75;5028198;28;20046;-47
2021/11/25 07:20:21;;;;;;;27.17;15.40;;;2.90;85.60;;;3.21;65.04;96992.88;5029943;28;20045;-47
2021/11/25 07:22:49;;;;;;;29.60;15.50;;;2.80;85.50;;;3.19;65.22;96989.56;5026901;28;20052;-45
2021/11/25 07:25:18;;;;;;;30.63;15.13;;;2.80;85.80;;;3.17;65.17;96991.47;5023828;28;20060;-44
2021/11/25 07:27:46;;;;;;;30.40;15.37;;;2.70;86.00;;;3.17;65.24;96978.34;5027906;28;20062;-45
2021/11/25 07:30:17;;;;;;;22.83;13.40;;;2.70;86.10;;;3.15;64.96;96981.91;5028421;28;20050;-46
2021/11/25 07:32:46;;;;;;;24.60;12.00;;;2.70;86.10;;;3.18;65.35;96986.09;5024817;28;20068;-46
2021/11/25 07:35:19;;;;;;;28.37;14.23;;;2.80;86.10;;;3.20;65.05;96984.16;5028077;28;20053;-47
2021/11/25 07:37:49;;;;;;;25.37;14.17;;;2.80;85.70;;;3.19;64.89;96984.28;5028420;28;20355;-48
2021/11/25 07:40:17;;;;;;;28.40;13.60;;;2.70;85.70;;;3.21;65.17;96988.44;5025693;28;20061;-46
2021/11/25 07:42:46;;;;;;;23.97;12.87;;;2.80;85.60;;;3.20;65.29;96984.16;5026899;28;20065;-47
2021/11/25 07:45:14;;;;;;;27.23;13.23;;;2.80;85.60;;;3.22;65.02;96991.91;5026215;28;20049;-46
2021/11/25 07:47:43;;;;;;;25.43;13.43;;;2.80;86.50;;;3.22;64.97;96995.38;5028237;28;20057;-48
2021/11/25 07:50:14;;;;;;;25.10;14.07;;;2.80;85.90;;;3.22;65.45;96997.16;5028347;28;20065;-47
2021/11/25 07:52:43;;;;;;;25.67;13.10;;;2.80;85.50;;;3.18;64.78;97004.50;5027351;28;20046;-47
2021/11/25 07:55:15;;;;;;;20.73;12.83;;;2.80;85.80;;;3.19;65.25;97003.53;5027157;28;20351;-47
2021/11/25 07:57:44;;;;;;;28.73;14.27;;;2.80;85.60;;;3.18;65.16;96998.41;5026763;28;20061;-47
2021/11/25 08:00:14;;;;;;;26.43;13.93;;;2.90;85.60;;;3.18;64.61;96994.00;5028989;28;20410;-46
2021/11/25 08:02:50;;;;;;;26.07;13.47;;;2.80;85.00;;;3.17;65.68;96994.94;5018297;28;20076;-46
2021/11/25 08:05:34;;;;;;;24.77;14.17;;;2.80;85.30;;;3.14;65.31;96982.88;5041126;28;20641;-46
2021/11/25 08:08:02;;;;;;;27.67;12.43;;;2.70;85.70;;;3.19;64.97;96979.03;5046068;28;20053;-43
2021/11/25 08:10:30;;;;;;;21.97;12.17;;;2.80;86.20;;;3.21;64.86;96987.63;5047502;28;20058;-45
2021/11/25 08:12:59;;;;;;;28.93;13.17;;;2.90;85.80;;;3.22;65.06;96995.38;5046185;28;20072;-49
2021/11/25 08:15:27;;;;;;;31.30;14.57;;;2.80;85.50;;;3.21;65.56;96985.81;5045966;28;20083;-46
2021/11/25 08:17:56;;;;;;;25.17;14.23;;;2.80;85.70;;;3.22;64.97;96986.66;5047398;28;20052;-47
2021/11/25 08:20:25;;;;;;;25.23;13.83;;;2.80;86.90;;;3.24;65.70;96982.94;5041193;28;20254;-44
2021/11/25 08:22:54;;;;;;;29.93;14.03;;;2.90;86.10;;;3.27;65.21;96982.66;5046429;28;20060;-47
2021/11/25 08:25:23;;;;;;;26.13;15.03;;;2.90;85.70;;;3.28;65.17;96989.59;5047780;28;20677;-46
2021/11/25 08:27:57;;;;;;;26.50;14.20;;;2.90;85.60;;;3.30;65.42;96992.09;5046885;28;20460;-46
2021/11/25 08:30:26;;;;;;;25.08;13.80;;;2.90;85.60;;;3.31;65.63;96977.97;5046999;28;20057;-46
2021/11/25 08:32:53;;;;;;;26.27;14.27;;;2.90;85.70;;;3.34;65.16;96980.34;5046494;28;20056;-46
2021/11/25 08:35:22;;;;;;;25.63;13.70;;;2.90;85.60;;;3.37;65.24;96985.31;5045399;28;20079;-47
2021/11/25 08:37:50;;;;;;;26.50;14.80;;;3.00;85.60;;;3.39;64.90;96982.56;5045573;28;20048;-47
2021/11/25 08:40:18;;;;;;;24.37;13.97;;;3.00;85.00;;;3.38;64.97;96979.13;5045300;28;20059;-47
2021/11/25 08:42:47;;;;;;;28.83;14.87;;;3.00;85.20;;;3.42;65.51;96980.50;5045461;28;20275;-48
2021/11/25 08:45:16;;;;;;;28.93;14.83;;;3.00;85.10;;;3.44;65.44;96980.38;5044877;28;20049;-48
2021/11/25 08:47:44;;;;;;;25.97;14.57;;;3.00;84.90;;;3.46;65.24;96974.00;5046620;28;20057;-49
2021/11/25 08:50:17;;;;;;;28.60;14.47;;;3.10;84.80;;;3.46;65.32;96965.28;5046714;28;20048;-47
2021/11/25 08:52:46;;;;;;;32.13;15.97;;;3.10;84.10;;;3.46;64.88;96970.56;5044851;28;20261;-46
2021/11/25 08:55:14;;;;;;;24.10;13.03;;;3.10;84.00;;;3.48;64.59;96973.88;5046931;28;20054;-48
2021/11/25 08:57:42;;;;;;;23.53;12.60;;;3.10;83.90;;;3.49;64.81;96970.28;5035958;28;20057;-46
2021/11/25 09:00:11;;;;;;;22.37;12.13;;;3.10;82.60;;;3.50;64.31;96983.31;5048070;28;20049;-47
2021/11/25 09:02:39;;;;;;;28.17;13.47;;;3.10;82.10;;;3.52;64.52;96978.75;5035099;28;20049;-48
2021/11/25 09:05:10;;;;;;;23.73;13.17;;;3.20;82.10;;;3.56;64.61;96976.69;5034105;28;20050;-47
2021/11/25 09:07:39;;;;;;;24.07;12.43;;;3.30;81.70;;;3.57;64.21;96978.34;5034573;28;20049;-45
2021/11/25 09:10:09;;;;;;;25.03;12.97;;;3.30;81.20;;;3.55;63.99;96970.59;5035357;28;20063;-48
2021/11/25 09:12:37;;;;;;;23.90;12.00;;;3.30;81.20;;;3.57;64.19;96966.97;5035354;28;20052;-46
2021/11/25 09:15:19;;;;;;;23.07;12.33;;;3.30;81.20;;;3.52;63.55;96967.38;5035839;28;20053;-47
2021/11/25 09:17:47;;;;;;;21.73;11.53;;;3.20;80.30;;;3.53;64.33;96969.88;5037977;28;20061;-48
2021/11/25 09:20:34;;;;;;;25.20;12.53;;;3.20;81.10;;;3.53;63.95;96966.44;5046102;28;20207;-48
2021/11/25 09:23:09;;;;;;;29.20;14.90;;;3.20;81.10;;;3.52;63.75;96978.75;5047078;28;20045;-47
2021/11/25 09:25:42;;;;;;;25.43;13.63;;;3.20;82.10;;;3.58;64.18;96989.72;5044898;28;20115;-47
2021/11/25 09:28:24;;;;;;;21.97;12.77;;;3.30;82.50;;;3.63;64.66;96987.53;5046328;28;20056;-46
2021/11/25 09:30:54;;;;;;;21.17;11.80;;;3.40;82.50;;;3.65;64.20;96988.22;5045808;28;20048;-46
2021/11/25 09:33:23;;;;;;;25.27;13.63;;;3.40;82.10;;;3.58;64.45;96976.53;5045356;28;20064;-46
2021/11/25 09:35:51;;;;;;;24.43;13.63;;;3.30;82.70;;;3.52;64.54;96981.38;5038227;28;20259;-46
2021/11/25 09:38:21;;;;;;;29.43;15.63;;;3.10;83.60;;;3.45;64.84;96987.28;5031539;28;20347;-45
2021/11/25 09:40:50;;;;;;;27.90;14.80;;;3.10;84.20;;;3.42;64.66;96991.03;5045411;28;20335;-48
2021/11/25 09:43:24;;;;;;;29.00;16.33;;;3.10;84.00;;;3.43;64.65;96992.72;5037698;28;20367;-41
2021/11/25 09:45:54;;;;;;;67.40;25.13;;;3.00;84.20;;;3.41;64.98;96986.72;5037324;28;20037;-41
2021/11/25 09:48:27;;;;;;;38.97;17.20;;;3.00;84.20;;;3.46;64.51;96987.16;5034595;28;20056;-42
2021/11/25 09:50:57;;;;;;;30.20;15.20;;;3.10;84.30;;;3.51;64.65;96989.41;5038575;28;20340;-41
2021/11/25 09:53:28;;;;;;;26.07;14.37;;;3.20;83.60;;;3.51;64.56;96992.06;5034112;28;20053;-42
2021/11/25 09:55:56;;;;;;;25.83;14.07;;;3.20;83.10;;;3.48;64.87;96987.03;5038777;28;20041;-42
2021/11/25 09:58:30;;;;;;;24.00;13.73;;;3.20;82.50;;;3.50;64.42;96988.56;5033569;28;20067;-41
2021/11/25 10:01:03;;;;;;;;;;;3.20;82.20;;;3.46;64.61;96981.91;5037933;28;20053;-41
2021/11/25 10:03:37;;;;;;;25.57;13.10;;;3.20;82.50;;;3.50;64.92;96985.13;5038831;28;19923;-41
2021/11/25 10:06:06;;;;;;;37.13;17.57;;;3.20;83.40;;;3.50;64.69;96982.47;5038758;28;20260;-41
2021/11/25 10:08:49;;;;;;;24.47;14.10;;;3.20;83.70;;;3.56;64.51;96979.31;5038860;28;20054;-41
2021/11/25 10:11:41;;;;;;;39.87;18.37;;;3.30;83.80;;;3.59;64.47;96979.06;5039299;28;20227;-41
2021/11/25 10:14:15;;;;;;;50.07;21.63;;;3.30;83.50;;;3.58;64.63;96972.09;5046344;28;20041;-42
2021/11/25 10:16:50;;;;;;;34.45;15.45;;;3.20;83.50;;;3.57;64.58;96980.13;5039056;28;20453;-41
2021/11/25 10:19:23;;;;;;;29.40;15.93;;;3.30;83.20;;;3.57;64.72;96974.88;5049954;28;20053;-41
2021/11/25 10:22:00;;;;;;;29.70;14.90;;;3.30;83.00;;;3.60;64.31;96977.25;5030006;28;20064;-42
2021/11/25 10:24:40;;;;;;;35.47;16.30;;;3.30;83.00;;;3.62;64.40;96977.94;5037545;28;20056;-41
2021/11/25 10:27:25;;;;;;;30.90;15.87;;;3.30;82.20;;;3.65;64.27;96975.06;5037054;28;20045;-42
2021/11/25 10:30:18;;;;;;;29.77;15.87;;;3.40;82.30;;;3.67;64.27;96970.50;5036926;28;20053;-41
2021/11/25 10:32:59;;;;;;;25.77;13.77;;;3.30;81.80;;;3.68;64.05;96962.47;5034951;28;20222;-42